Time;durP1;ratioP1;P1;durP2;ratioP2;P2;SDS_P1;SDS_P2;PMS_P1;PMS_P2;Temp;Humidity;BMP_temperature;BMP_pressure;BME280_temperature;BME280_humidity;BME280_pressure;Samples;Min_cycle;Max_cycle;Signal;HPM_P1;HPM_P2
2021/01/13 00:01:10;;;;;;;76.82;28.67;;;;;;;-1.01;76.75;99357.57;1721749;81;20983;-47
2021/01/13 00:03:38;;;;;;;62.95;27.85;;;;;;;-1.01;76.82;99358.89;1699647;83;21117;-49
2021/01/13 00:09:08;;;;;;;42.15;23.52;;;;;;;-0.98;77.11;99352.67;1749729;79;22816;-49
2021/01/13 00:11:36;;;;;;;42.78;22.10;;;;;;;-1.06;77.32;99351.00;1689589;82;21013;-47
2021/01/13 00:14:04;;;;;;;40.98;22.15;;;;;;;-1.10;77.75;99349.27;1691351;82;22080;-48
2021/01/13 00:16:32;;;;;;;33.15;20.17;;;;;;;-1.11;78.04;99343.55;1689074;82;21715;-47
2021/01/13 00:19:01;;;;;;;42.67;20.90;;;;;;;-1.13;78.36;99338.70;1688832;82;21073;-50
2021/01/13 00:21:29;;;;;;;38.05;21.27;;;;;;;-1.15;78.61;99332.56;1687573;82;20958;-48
2021/01/13 00:23:57;;;;;;;44.35;21.70;;;;;;;-1.15;78.67;99321.98;1690424;82;21001;-48
2021/01/13 00:26:25;;;;;;;42.40;21.55;;;;;;;-1.15;78.69;99307.87;1693486;82;21468;-48
2021/01/13 00:28:54;;;;;;;39.00;20.62;;;;;;;-1.14;78.84;99309.17;1694864;82;21219;-49
2021/01/13 00:31:23;;;;;;;37.63;19.00;;;;;;;-1.17;78.83;99304.34;1688985;82;21056;-48
2021/01/13 00:33:51;;;;;;;37.45;18.45;;;;;;;-1.19;78.88;99308.34;1691357;82;21139;-52
2021/01/13 00:36:24;;;;;;;53.33;20.70;;;;;;;-1.19;78.85;99303.05;1691973;82;21171;-52
2021/01/13 00:38:52;;;;;;;169.07;38.88;;;;;;;-1.23;78.73;99296.03;1688712;82;22242;-53
2021/01/13 00:41:21;;;;;;;109.52;31.65;;;;;;;-1.24;78.65;99303.55;1691457;82;21167;-53
2021/01/13 00:43:50;;;;;;;75.97;24.52;;;;;;;-1.25;78.62;99296.50;1693862;82;21124;-51
2021/01/13 00:46:20;;;;;;;44.58;18.98;;;;;;;-1.23;78.47;99296.48;1695966;82;21149;-53
2021/01/13 00:48:49;;;;;;;30.72;16.85;;;;;;;-1.25;78.29;99275.34;1692244;82;21659;-52
2021/01/13 00:51:17;;;;;;;26.45;15.18;;;;;;;-1.28;78.08;99274.04;1692450;82;21679;-52
2021/01/13 00:53:46;;;;;;;22.52;14.07;;;;;;;-1.32;77.85;99261.77;1692961;82;21122;-53
2021/01/13 00:56:20;;;;;;;30.05;15.30;;;;;;;-1.38;77.69;99265.80;1689545;82;21554;-52
2021/01/13 00:58:48;;;;;;;31.40;15.83;;;;;;;-1.42;77.71;99273.32;1691006;82;21164;-50
2021/01/13 01:01:16;;;;;;;39.92;17.35;;;;;;;-1.44;77.77;99279.05;1693149;82;21049;-52
2021/01/13 01:03:44;;;;;;;40.95;17.50;;;;;;;-1.46;77.76;99283.48;1690915;82;22173;-52
2021/01/13 01:06:12;;;;;;;29.18;14.95;;;;;;;-1.49;77.68;99271.61;1693100;82;21143;-50
2021/01/13 01:08:40;;;;;;;23.50;13.55;;;;;;;-1.53;77.38;99273.88;1693996;82;21016;-50
2021/01/13 01:11:09;;;;;;;29.07;14.63;;;;;;;-1.57;77.12;99273.46;1698450;82;21138;-50
2021/01/13 01:13:37;;;;;;;37.60;16.15;;;;;;;-1.57;77.08;99282.72;1697814;81;21105;-50
2021/01/13 01:16:05;;;;;;;28.65;14.63;;;;;;;-1.61;76.84;99284.05;1696361;82;21430;-50
2021/01/13 01:18:33;;;;;;;19.60;13.18;;;;;;;-1.62;76.74;99284.08;1696001;82;21179;-48
2021/01/13 01:21:02;;;;;;;30.27;15.08;;;;;;;-1.65;76.51;99279.70;1699635;82;21020;-48
2021/01/13 01:23:30;;;;;;;26.20;15.58;;;;;;;-1.67;76.39;99274.86;1698720;82;20981;-48
2021/01/13 01:25:58;;;;;;;39.08;16.37;;;;;;;-1.70;76.32;99272.70;1696004;83;21670;-48
2021/01/13 01:28:26;;;;;;;77.65;20.52;;;;;;;-1.71;76.36;99270.48;1676060;82;21225;-48
2021/01/13 01:30:54;;;;;;;85.42;22.40;;;;;;;-1.71;76.28;99274.45;1698120;82;21221;-48
2021/01/13 01:33:22;;;;;;;73.17;24.43;;;;;;;-1.69;76.45;99268.72;1697649;82;21017;-48
2021/01/13 01:35:51;;;;;;;50.92;19.67;;;;;;;-1.68;76.38;99251.97;1703723;82;21139;-48
2021/01/13 01:38:19;;;;;;;49.00;16.67;;;;;;;-1.69;76.21;99250.22;1686249;83;21149;-47
2021/01/13 01:40:49;;;;;;;28.70;14.53;;;;;;;-1.69;76.18;99246.25;1699884;82;21009;-48
2021/01/13 01:43:17;;;;;;;27.32;15.48;;;;;;;-1.70;76.05;99236.58;1697652;82;21009;-47
2021/01/13 01:45:45;;;;;;;27.35;14.87;;;;;;;-1.71;76.05;99224.23;1694173;82;21163;-47
2021/01/13 01:48:23;;;;;;;27.30;14.35;;;;;;;-1.70;75.74;99229.97;1695413;82;21627;-50
2021/01/13 01:51:00;;;;;;;23.70;13.95;;;;;;;-1.72;75.71;99218.52;1693922;82;21009;-49
2021/01/13 01:54:05;;;;;;;25.55;14.83;;;;;;;-1.74;75.83;99228.23;1635461;85;21394;-49
2021/01/13 01:56:40;;;;;;;23.98;15.60;;;;;;;-1.75;75.83;99225.62;1675091;83;21152;-49
2021/01/13 01:59:11;;;;;;;33.28;15.08;;;;;;;-1.76;75.44;99215.91;1662081;83;21131;-49
2021/01/13 02:01:51;;;;;;;30.43;16.70;;;;;;;-1.79;75.40;99222.12;1676488;83;21166;-48
2021/01/13 02:04:31;;;;;;;33.75;16.77;;;;;;;-1.79;75.27;99232.69;1639543;85;21052;-48
2021/01/13 02:07:10;;;;;;;25.88;14.80;;;;;;;-1.81;75.26;99213.34;1663867;85;21302;-47
2021/01/13 02:09:39;;;;;;;27.55;15.32;;;;;;;-1.79;75.07;99211.55;1677089;83;21254;-48
2021/01/13 02:12:11;;;;;;;24.12;13.93;;;;;;;-1.82;75.01;99207.59;1662527;85;21548;-49
2021/01/13 02:14:41;;;;;;;23.10;13.95;;;;;;;-1.83;74.91;99201.88;1675670;83;21243;-48
2021/01/13 02:17:10;;;;;;;25.55;14.05;;;;;;;-1.84;74.84;99194.85;1664846;83;21190;-48
2021/01/13 02:19:52;;;;;;;24.18;15.40;;;;;;;-1.86;74.65;99197.97;1678311;83;22269;-50
2021/01/13 02:22:26;;;;;;;24.30;13.50;;;;;;;-1.88;74.52;99203.70;1661004;85;21246;-49
2021/01/13 02:25:15;;;;;;;25.90;14.45;;;;;;;-1.88;74.47;99193.13;1676530;83;21257;-48
2021/01/13 02:28:08;;;;;;;26.60;13.55;;;;;;;-1.90;74.46;99180.38;1663539;85;20961;-48
2021/01/13 02:30:45;;;;;;;29.57;15.63;;;;;;;-1.91;74.43;99175.55;1602827;87;21238;-50
2021/01/13 02:33:44;;;;;;;24.32;14.90;;;;;;;-1.85;74.37;99179.89;1823376;76;23394;-48
2021/01/13 02:36:39;;;;;;;24.35;15.58;;;;;;;-1.91;74.43;99184.80;1797539;77;21009;-48
2021/01/13 02:39:08;;;;;;;27.42;15.32;;;;;;;-1.90;74.33;99177.74;1794263;78;21452;-47
2021/01/13 02:41:42;;;;;;;23.65;14.60;;;;;;;-1.91;74.19;99173.35;1788777;79;21005;-49
2021/01/13 02:44:10;;;;;;;24.55;13.58;;;;;;;-1.94;74.03;99169.41;1785634;79;20966;-50
2021/01/13 02:47:05;;;;;;;22.77;13.25;;;;;;;-1.96;74.11;99160.63;1758884;79;21002;-48
2021/01/13 02:49:40;;;;;;;27.35;14.90;;;;;;;-1.95;74.01;99146.08;1796351;79;21648;-48
2021/01/13 02:52:19;;;;;;;25.92;13.70;;;;;;;-1.95;74.01;99149.16;1791546;79;21375;-47
2021/01/13 02:54:55;;;;;;;25.88;15.35;;;;;;;-1.94;74.03;99142.98;1785902;79;21027;-48
2021/01/13 02:57:29;;;;;;;25.60;15.25;;;;;;;-1.94;73.70;99141.22;1789742;79;20966;-47
2021/01/13 02:59:58;;;;;;;27.40;16.93;;;;;;;-1.93;73.74;99136.80;1786768;78;21552;-49
2021/01/13 03:02:36;;;;;;;30.82;16.30;;;;;;;-1.90;73.60;99139.43;1786162;79;21084;-49
2021/01/13 03:05:05;;;;;;;27.62;15.35;;;;;;;-1.91;73.47;99140.33;1785123;79;21375;-47
2021/01/13 03:07:37;;;;;;;26.17;15.03;;;;;;;-1.91;73.49;99149.58;1788093;79;20962;-49
2021/01/13 03:10:16;;;;;;;27.48;15.83;;;;;;;-1.91;73.55;99149.13;1790263;77;21005;-48
2021/01/13 03:12:44;;;;;;;30.88;17.40;;;;;;;-1.89;73.51;99147.33;1787359;79;20989;-47
2021/01/13 03:15:13;;;;;;;22.98;14.35;;;;;;;-1.91;73.52;99152.22;1703270;79;21092;-48
2021/01/13 03:17:49;;;;;;;24.02;13.88;;;;;;;-1.92;73.54;99149.12;1788289;79;21195;-46
2021/01/13 03:21:04;;;;;;;27.05;15.23;;;;;;;-1.93;73.55;99147.37;1788145;79;21029;-47
2021/01/13 03:23:47;;;;;;;23.98;14.28;;;;;;;-1.94;73.57;99135.93;1789550;78;20993;-52
2021/01/13 03:26:30;;;;;;;24.80;14.73;;;;;;;-1.91;73.67;99132.41;1790921;76;22769;-51
2021/01/13 03:28:58;;;;;;;29.10;16.73;;;;;;;-1.98;73.80;99124.95;1779809;79;20965;-52
2021/01/13 03:31:31;;;;;;;29.63;16.77;;;;;;;-1.93;73.86;99122.27;1781472;78;21208;-52
2021/01/13 03:34:29;;;;;;;29.90;15.63;;;;;;;-1.93;73.85;99114.34;1752170;80;21517;-52
2021/01/13 03:37:16;;;;;;;36.23;17.98;;;;;;;-1.93;73.99;99110.38;1781416;78;21268;-52
2021/01/13 03:39:44;;;;;;;41.92;20.88;;;;;;;-1.93;73.93;99105.97;1781381;79;21310;-52
2021/01/13 03:42:15;;;;;;;41.58;21.50;;;;;;;-1.92;73.93;99106.84;1780807;79;21069;-51
2021/01/13 03:44:46;;;;;;;36.80;18.20;;;;;;;-1.92;73.91;99110.39;1781358;79;21454;-52
2021/01/13 03:47:32;;;;;;;35.50;18.00;;;;;;;-1.94;73.89;99106.87;1781020;79;21035;-51
2021/01/13 03:50:24;;;;;;;27.37;16.75;;;;;;;-1.93;73.91;99111.26;1780826;79;20985;-52
2021/01/13 03:53:03;;;;;;;28.38;14.47;;;;;;;-1.95;73.81;99098.97;1781284;79;20985;-52
2021/01/13 03:55:33;;;;;;;31.52;15.55;;;;;;;-1.96;73.89;99101.19;1778753;79;21447;-52
2021/01/13 03:58:28;;;;;;;30.37;15.10;;;;;;;-1.94;73.85;99095.43;1779074;79;21357;-50
2021/01/13 04:01:25;;;;;;;32.98;16.62;;;;;;;-1.96;73.86;99087.98;1779883;79;21645;-52
2021/01/13 04:04:25;;;;;;;33.23;18.10;;;;;;;-1.95;73.80;99085.76;1780908;79;21667;-51
2021/01/13 04:07:02;;;;;;;27.62;15.40;;;;;;;-1.92;73.93;99072.49;1810894;77;22676;-49
2021/01/13 04:09:32;;;;;;;29.80;15.85;;;;;;;-1.99;73.84;99079.63;1781630;79;20906;-49
2021/01/13 04:12:16;;;;;;;25.00;14.55;;;;;;;-2.01;73.96;99081.41;1745330;81;21392;-51
2021/01/13 04:14:55;;;;;;;24.63;14.50;;;;;;;-2.01;74.00;99075.26;1744748;80;21074;-50
2021/01/13 04:17:25;;;;;;;24.92;14.38;;;;;;;-2.02;74.03;99071.75;1746399;80;20962;-53
2021/01/13 04:19:53;;;;;;;28.20;16.40;;;;;;;-2.05;74.06;99061.20;1746996;80;21626;-51
2021/01/13 04:22:25;;;;;;;27.37;16.05;;;;;;;-2.03;74.21;99070.42;1746479;80;21534;-51
2021/01/13 04:24:52;;;;;;;24.63;14.40;;;;;;;-2.02;74.29;99057.66;1744720;80;21380;-51
2021/01/13 04:27:20;;;;;;;22.67;13.15;;;;;;;-2.03;74.36;99054.13;1712450;82;20998;-51
2021/01/13 04:29:51;;;;;;;26.07;13.53;;;;;;;-2.02;74.38;99052.38;1706923;82;21379;-53
2021/01/13 04:32:19;;;;;;;23.90;14.28;;;;;;;-2.02;74.38;99061.18;1707847;82;21573;-52
2021/01/13 04:34:48;;;;;;;20.32;13.90;;;;;;;-2.01;74.46;99055.45;1708542;82;21156;-52
2021/01/13 04:37:16;;;;;;;21.35;14.28;;;;;;;-1.97;74.48;99053.17;1744110;81;21347;-52
2021/01/13 04:39:45;;;;;;;24.02;14.18;;;;;;;-1.96;74.42;99060.23;1708432;81;21023;-53
2021/01/13 04:42:13;;;;;;;21.17;14.05;;;;;;;-1.95;74.41;99061.98;1742788;81;20951;-51
2021/01/13 04:44:57;;;;;;;23.40;14.33;;;;;;;-1.95;74.42;99059.34;1748449;80;20994;-52
2021/01/13 04:47:30;;;;;;;27.93;15.50;;;;;;;-1.95;74.48;99059.34;1741640;80;21196;-52
2021/01/13 04:49:58;;;;;;;24.85;14.80;;;;;;;-1.94;74.54;99050.52;1740008;80;21405;-50
2021/01/13 04:52:31;;;;;;;20.45;13.68;;;;;;;-1.92;74.37;99042.11;1742969;80;21673;-49
2021/01/13 04:54:59;;;;;;;27.15;15.80;;;;;;;-1.94;74.29;99037.30;1712359;81;21171;-50
2021/01/13 04:57:42;;;;;;;28.52;16.60;;;;;;;-1.93;74.35;99034.63;1709806;82;21196;-51
2021/01/13 05:00:11;;;;;;;29.57;16.20;;;;;;;-1.94;74.37;99030.70;1746376;81;21074;-50
2021/01/13 05:03:25;;;;;;;28.07;16.05;;;;;;;-1.97;74.37;99022.80;1752317;80;21373;-51
2021/01/13 05:06:16;;;;;;;28.92;16.30;;;;;;;-1.96;74.48;99028.53;1742745;80;21177;-49
2021/01/13 05:08:50;;;;;;;31.42;17.55;;;;;;;-1.96;74.63;99020.61;1719331;80;21632;-50
2021/01/13 05:11:18;;;;;;;32.80;19.73;;;;;;;-1.94;74.73;99024.09;1733166;81;21105;-50
2021/01/13 05:13:46;;;;;;;34.10;19.42;;;;;;;-1.92;74.74;99024.94;1707258;81;21027;-50
2021/01/13 05:16:15;;;;;;;25.72;15.40;;;;;;;-1.94;74.69;99024.09;1731835;81;21648;-49
2021/01/13 05:18:53;;;;;;;30.35;16.65;;;;;;;-1.95;74.80;99025.00;1735032;81;21190;-50
2021/01/13 05:21:29;;;;;;;25.43;16.87;;;;;;;-1.84;74.73;99033.66;1800371;78;23302;-52
2021/01/13 05:23:58;;;;;;;31.20;17.70;;;;;;;-1.90;74.63;99036.38;1771853;79;21002;-49
2021/01/13 05:26:26;;;;;;;28.30;16.48;;;;;;;-1.91;74.68;99024.07;1771393;79;21386;-50
2021/01/13 05:29:09;;;;;;;30.32;17.55;;;;;;;-1.89;74.80;99016.98;1773268;79;21033;-50
2021/01/13 05:31:37;;;;;;;31.55;18.73;;;;;;;-1.89;74.78;99019.63;1770260;79;21022;-52
2021/01/13 05:34:06;;;;;;;37.48;20.85;;;;;;;-1.90;74.90;99012.60;1703572;79;21636;-51
2021/01/13 05:36:34;;;;;;;44.30;22.93;;;;;;;-1.83;74.94;99014.27;1771041;79;20966;-51
2021/01/13 05:39:13;;;;;;;45.28;25.20;;;;;;;-1.79;74.77;99008.06;1691187;79;21221;-52
2021/01/13 05:41:41;;;;;;;39.65;21.65;;;;;;;-1.78;74.87;99011.13;1772053;79;21022;-50
2021/01/13 05:44:10;;;;;;;42.03;25.57;;;;;;;-1.76;74.71;99006.68;1772309;79;21001;-51
2021/01/13 05:46:47;;;;;;;39.55;24.37;;;;;;;-1.78;74.87;99000.55;1770143;79;20950;-50
2021/01/13 05:49:16;;;;;;;35.38;20.48;;;;;;;-1.72;74.84;99003.11;1771279;79;21526;-50
2021/01/13 05:51:44;;;;;;;33.15;20.25;;;;;;;-1.68;74.62;98992.94;1772046;79;21377;-52
2021/01/13 05:54:16;;;;;;;30.95;18.48;;;;;;;-1.75;74.53;98995.23;1769817;79;21091;-47
2021/01/13 05:56:45;;;;;;;34.78;19.67;;;;;;;-1.77;74.75;98983.80;1769178;79;21139;-50
2021/01/13 05:59:14;;;;;;;28.87;17.65;;;;;;;-1.80;74.64;98987.81;1770245;79;21172;-50
2021/01/13 06:02:00;;;;;;;47.23;22.45;;;;;;;-1.83;74.84;98987.84;1773407;79;21572;-52
2021/01/13 06:04:30;;;;;;;36.80;21.37;;;;;;;-1.83;74.96;98990.48;1772007;79;22524;-53
2021/01/13 06:07:09;;;;;;;34.48;17.98;;;;;;;-1.84;75.10;98991.38;1770060;79;21057;-52
2021/01/13 06:09:41;;;;;;;36.10;20.23;;;;;;;-1.80;75.01;98994.42;1770770;79;21239;-51
2021/01/13 06:12:17;;;;;;;31.05;19.60;;;;;;;-1.81;75.00;98987.40;1772010;79;21499;-51
2021/01/13 06:14:50;;;;;;;30.15;18.60;;;;;;;-1.81;75.11;98988.72;1771313;79;21418;-51
2021/01/13 06:17:30;;;;;;;33.98;19.73;;;;;;;-1.73;75.06;98986.83;1861329;74;23087;-51
2021/01/13 06:19:58;;;;;;;30.92;18.62;;;;;;;-1.79;75.16;98990.01;1846740;75;21034;-51
2021/01/13 06:22:30;;;;;;;27.87;17.55;;;;;;;-1.75;75.21;98988.63;1841880;77;21502;-50
2021/01/13 06:25:08;;;;;;;26.97;17.95;;;;;;;-1.67;75.03;98989.39;1854360;74;22706;-50
2021/01/13 06:27:59;;;;;;;30.05;17.82;;;;;;;-1.74;74.98;98993.02;1844015;77;20977;-51
2021/01/13 06:30:28;;;;;;;25.55;15.40;;;;;;;-1.79;75.21;98991.33;1755422;79;21375;-51
2021/01/13 06:33:05;;;;;;;35.38;20.02;;;;;;;-1.82;75.36;98997.52;1766657;80;21180;-51
2021/01/13 06:35:47;;;;;;;34.67;18.17;;;;;;;-1.85;75.44;98987.00;1757257;78;20997;-51
2021/01/13 06:38:18;;;;;;;35.00;19.82;;;;;;;-1.85;75.68;98987.00;1769827;80;20998;-51
2021/01/13 06:40:58;;;;;;;32.95;18.87;;;;;;;-1.85;75.77;98987.87;1773201;80;21113;-49
2021/01/13 06:43:26;;;;;;;34.15;18.98;;;;;;;-1.83;75.86;98983.88;1756963;78;22277;-51
2021/01/13 06:45:56;;;;;;;33.85;19.30;;;;;;;-1.79;75.92;98981.63;1773784;80;21002;-51
2021/01/13 06:48:27;;;;;;;36.85;20.05;;;;;;;-1.77;75.90;98971.90;1800411;78;21160;-50
2021/01/13 06:50:57;;;;;;;37.53;21.10;;;;;;;-1.74;75.82;98977.16;1800306;78;20974;-52
2021/01/13 06:53:33;;;;;;;35.17;21.23;;;;;;;-1.72;75.80;98971.39;1769695;80;21113;-50
2021/01/13 06:56:09;;;;;;;37.17;20.23;;;;;;;-1.66;75.86;98966.02;1729675;78;21214;-52
2021/01/13 06:58:38;;;;;;;37.65;19.40;;;;;;;-1.59;75.63;98966.38;1764698;80;21049;-48
2021/01/13 07:01:07;;;;;;;39.25;20.35;;;;;;;-1.54;75.50;98970.73;1765129;80;20987;-52
2021/01/13 07:03:36;;;;;;;41.25;21.68;;;;;;;-1.53;75.32;98965.42;1769145;80;21101;-53
2021/01/13 07:06:10;;;;;;;35.80;20.17;;;;;;;-1.53;75.36;98967.19;1801222;78;21129;-51
2021/01/13 07:08:38;;;;;;;35.50;21.70;;;;;;;-1.48;75.32;98961.39;1764845;79;22189;-53
2021/01/13 07:11:10;;;;;;;37.10;20.08;;;;;;;-1.48;75.32;98958.75;1766585;80;21129;-49
2021/01/13 07:13:40;;;;;;;40.45;23.42;;;;;;;-1.46;75.29;98955.63;1773613;80;21156;-49
2021/01/13 07:16:09;;;;;;;33.85;20.15;;;;;;;-1.41;75.39;98947.17;1763071;78;21651;-55
2021/01/13 07:18:37;;;;;;;40.40;22.95;;;;;;;-1.35;75.30;98948.39;1767905;80;21200;-56
2021/01/13 07:21:10;;;;;;;35.50;20.97;;;;;;;-1.37;75.22;98952.84;1758466;78;21599;-50
2021/01/13 07:23:43;;;;;;;32.23;18.87;;;;;;;-1.37;75.30;98952.84;1768617;80;21657;-53
2021/01/13 07:26:19;;;;;;;38.23;20.85;;;;;;;-1.33;75.36;98943.98;1836783;76;22815;-52
2021/01/13 07:28:47;;;;;;;39.42;21.87;;;;;;;-1.42;75.41;98948.08;1832069;77;21010;-57
2021/01/13 07:31:16;;;;;;;35.43;19.60;;;;;;;-1.42;75.58;98949.39;1776888;79;21935;-57
2021/01/13 07:33:45;;;;;;;30.35;18.15;;;;;;;-1.35;75.60;98948.39;1764237;80;21219;-51
2021/01/13 07:36:17;;;;;;;44.63;22.13;;;;;;;-1.35;75.51;98945.75;1746072;79;20990;-51
2021/01/13 07:38:45;;;;;;;36.80;19.52;;;;;;;-1.35;75.67;98935.17;1766734;79;20950;-51
2021/01/13 07:41:12;;;;;;;35.28;18.95;;;;;;;-1.37;75.63;98925.08;1736440;80;20944;-52
2021/01/13 07:44:22;;;;;;;40.78;21.10;;;;;;;-1.44;75.70;98918.13;1735965;80;21596;-51
2021/01/13 07:47:01;;;;;;;37.85;22.17;;;;;;;-1.52;75.91;98916.06;1763943;80;20978;-52
2021/01/13 07:49:47;;;;;;;40.48;22.58;;;;;;;-1.52;76.16;98916.06;1793562;78;20990;-51
2021/01/13 07:52:21;;;;;;;36.30;19.35;;;;;;;-1.50;76.21;98908.97;1863510;74;22672;-53
2021/01/13 07:54:50;;;;;;;39.08;23.32;;;;;;;-1.57;76.33;98904.68;1832873;75;21132;-53
2021/01/13 07:57:24;;;;;;;38.53;23.07;;;;;;;-1.59;76.40;98895.01;1808920;77;21700;-55
2021/01/13 08:00:09;;;;;;;38.23;22.27;;;;;;;-1.59;76.60;98898.97;1795817;77;21006;-50
2021/01/13 08:03:36;;;;;;;40.48;22.22;;;;;;;-1.55;76.75;98896.27;1811955;77;20969;-52
2021/01/13 08:06:34;;;;;;;34.33;20.02;;;;;;;-1.44;76.76;98893.00;1803295;77;21023;-50
2021/01/13 08:09:17;;;;;;;40.00;23.07;;;;;;;-1.29;76.45;98890.11;1802555;77;20933;-51
2021/01/13 08:12:09;;;;;;;37.95;22.87;;;;;;;-1.22;75.92;98883.84;1802482;77;21380;-51
2021/01/13 08:15:33;;;;;;;38.85;22.50;;;;;;;-1.20;75.71;98888.64;1806939;77;21104;-51
2021/01/13 08:18:32;;;;;;;37.03;21.73;;;;;;;-1.22;75.59;98881.20;1799299;77;21576;-52
2021/01/13 08:21:27;;;;;;;38.42;20.12;;;;;;;-1.21;75.65;98876.33;1805648;77;22403;-53
2021/01/13 08:24:13;;;;;;;33.92;20.02;;;;;;;-1.17;75.47;98874.06;1799409;77;21688;-53
2021/01/13 08:26:40;;;;;;;38.92;21.35;;;;;;;-1.16;75.43;98865.67;1797969;77;22061;-52
2021/01/13 08:29:18;;;;;;;38.92;21.50;;;;;;;-1.15;75.23;98852.86;1773072;78;21127;-56
2021/01/13 08:32:12;;;;;;;37.63;25.97;;;;;;;-1.01;75.16;98852.59;1765052;77;28673;-53
2021/01/13 08:34:49;;;;;;;44.08;24.10;;;;;;;-0.96;74.86;98845.45;1743776;79;21930;-54
2021/01/13 08:37:18;;;;;;;40.08;23.90;;;;;;;-0.89;74.48;98841.35;1774589;79;21433;-58
2021/01/13 08:39:47;;;;;;;36.30;21.33;;;;;;;-0.87;74.33;98851.90;1780734;79;20993;-52
2021/01/13 08:42:31;;;;;;;35.95;21.77;;;;;;;-0.85;74.27;98839.08;1773917;78;21144;-53
2021/01/13 08:45:00;;;;;;;44.60;25.23;;;;;;;-0.87;73.96;98847.93;1773110;78;21139;-55
2021/01/13 08:47:30;;;;;;;44.90;23.80;;;;;;;-0.87;73.79;98839.98;1772914;79;21635;-61
2021/01/13 08:50:13;;;;;;;35.48;20.00;;;;;;;-0.82;73.75;98843.42;1773714;78;21820;-56
2021/01/13 08:52:49;;;;;;;44.65;23.30;;;;;;;-0.83;73.35;98833.75;1768909;78;20977;-53
2021/01/13 08:55:19;;;;;;;39.35;23.18;;;;;;;-0.90;73.47;98837.42;1771325;78;21021;-55
2021/01/13 08:58:05;;;;;;;35.15;20.62;;;;;;;-0.90;73.21;98833.00;1771264;78;21647;-54
2021/01/13 09:00:35;;;;;;;31.35;18.98;;;;;;;-0.87;73.04;98834.70;1771261;79;21108;-52
2021/01/13 09:03:10;;;;;;;37.13;21.07;;;;;;;-0.92;72.96;98823.33;1771681;79;21737;-56
2021/01/13 09:05:39;;;;;;;41.02;22.02;;;;;;;-0.94;73.13;98814.56;1771706;78;21616;-53
2021/01/13 09:08:10;;;;;;;39.25;22.37;;;;;;;-0.99;73.18;98812.00;1773551;78;20997;-54
2021/01/13 09:10:54;;;;;;;35.58;20.05;;;;;;;-0.96;73.40;98811.05;1745307;81;21175;-52
2021/01/13 09:13:31;;;;;;;32.75;18.57;;;;;;;-0.93;73.20;98811.87;1765250;79;21555;-50
2021/01/13 09:16:28;;;;;;;35.92;19.52;;;;;;;-1.02;73.05;98800.13;1771310;79;22070;-58
2021/01/13 09:19:05;;;;;;;28.05;15.65;;;;;;;-1.10;73.32;98798.97;1771909;79;21218;-55
2021/01/13 09:21:40;;;;;;;31.27;16.27;;;;;;;-1.05;73.47;98801.53;1772659;78;21116;-54
2021/01/13 09:24:17;;;;;;;24.25;15.75;;;;;;;-1.00;73.22;98799.67;1768658;80;21715;-50
2021/01/13 09:26:57;;;;;;;24.27;15.72;;;;;;;-0.87;73.06;98809.11;1822553;75;22336;-52
2021/01/13 09:29:26;;;;;;;;;;;;;;;-0.90;72.99;98817.58;1789610;78;20988;-56
2021/01/13 09:32:12;;;;;;;21.55;13.43;;;;;;;-0.83;72.64;98815.22;1765139;78;21386;-51
2021/01/13 09:34:42;;;;;;;20.23;12.25;;;;;;;-0.77;72.07;98825.68;1763197;79;20998;-54
2021/01/13 09:37:15;;;;;;;23.12;14.68;;;;;;;-0.78;71.50;98812.48;1764839;78;21187;-56
2021/01/13 09:40:02;;;;;;;18.80;12.93;;;;;;;-0.88;71.15;98815.30;1765375;78;21544;-55
2021/01/13 09:42:40;;;;;;;20.00;12.58;;;;;;;-0.89;71.03;98802.11;1768199;78;21005;-52
2021/01/13 09:45:10;;;;;;;22.65;14.05;;;;;;;-0.88;70.79;98811.79;1767502;79;21729;-54
2021/01/13 09:47:40;;;;;;;22.20;13.25;;;;;;;-0.90;70.85;98809.18;1763709;79;21235;-57
2021/01/13 09:50:11;;;;;;;25.30;15.65;;;;;;;-0.89;70.94;98802.11;1763694;78;21025;-53
2021/01/13 09:52:44;;;;;;;24.95;15.38;;;;;;;-0.90;70.48;98799.92;1766357;78;20994;-56
2021/01/13 09:55:15;;;;;;;22.93;13.48;;;;;;;-0.91;70.19;98799.92;1766395;79;21533;-59
2021/01/13 09:57:49;;;;;;;21.90;13.35;;;;;;;-0.88;70.01;98795.91;1765957;78;21123;-56
2021/01/13 10:00:19;;;;;;;28.15;15.60;;;;;;;-0.87;69.89;98795.00;1761352;78;21077;-54
2021/01/13 10:02:49;;;;;;;24.25;15.00;;;;;;;-0.88;69.89;98786.65;1764166;78;21026;-53
2021/01/13 10:05:18;;;;;;;26.93;15.60;;;;;;;-0.88;69.62;98777.38;1760605;78;21041;-57
2021/01/13 10:07:46;;;;;;;27.98;14.55;;;;;;;-0.92;69.82;98775.70;1763561;78;21207;-52
2021/01/13 10:10:15;;;;;;;26.45;16.77;;;;;;;-0.97;69.94;98757.26;1710019;79;21469;-56
2021/01/13 10:12:47;;;;;;;23.80;14.70;;;;;;;-0.97;70.20;98759.03;1712131;79;21560;-56
2021/01/13 10:15:16;;;;;;;32.60;18.42;;;;;;;-0.93;70.18;98754.11;1763985;78;21127;-58
2021/01/13 10:17:45;;;;;;;23.85;15.32;;;;;;;-0.96;70.34;98758.13;1765504;78;21188;-57
2021/01/13 10:20:24;;;;;;;27.98;17.27;;;;;;;-0.92;70.37;98754.52;1765056;78;21123;-57
2021/01/13 10:22:53;;;;;;;29.05;15.32;;;;;;;-0.97;70.53;98737.87;1768054;79;21623;-61
2021/01/13 10:25:33;;;;;;;35.83;19.00;;;;;;;-0.97;70.81;98741.38;1768239;79;21155;-58
2021/01/13 10:28:02;;;;;;;32.58;18.23;;;;;;;-0.88;70.93;98729.75;1770136;79;21151;-53
2021/01/13 10:30:30;;;;;;;30.88;18.92;;;;;;;-0.85;70.83;98732.34;1771079;79;21521;-54
2021/01/13 10:32:59;;;;;;;30.12;18.25;;;;;;;-0.84;71.09;98736.73;1766605;78;21159;-56
2021/01/13 10:35:38;;;;;;;29.27;17.73;;;;;;;-0.84;71.13;98726.14;1772129;79;21160;-58
2021/01/13 10:38:07;;;;;;;31.12;16.25;;;;;;;-0.86;71.08;98730.58;1769477;78;21199;-59
2021/01/13 10:40:35;;;;;;;24.82;14.00;;;;;;;-0.87;71.16;98723.55;1772021;78;21328;-58
2021/01/13 10:43:03;;;;;;;24.52;13.45;;;;;;;-0.88;70.87;98719.16;1770722;79;21037;-55
2021/01/13 10:45:35;;;;;;;22.82;14.38;;;;;;;-0.88;70.72;98702.83;1767645;79;21622;-59
2021/01/13 10:48:07;;;;;;;23.73;13.65;;;;;;;-0.83;70.53;98710.68;1768667;79;22281;-53
2021/01/13 10:50:35;;;;;;;21.05;12.95;;;;;;;-0.81;70.15;98711.50;1767591;79;21163;-56
2021/01/13 10:53:04;;;;;;;23.15;13.53;;;;;;;-0.83;69.91;98700.09;1732395;79;21187;-62
2021/01/13 10:55:32;;;;;;;21.82;13.83;;;;;;;-0.86;70.02;98690.88;1766763;79;21533;-56
2021/01/13 10:58:01;;;;;;;19.12;12.25;;;;;;;-0.86;69.85;98684.27;1734138;81;21139;-55
2021/01/13 11:00:33;;;;;;;19.57;12.03;;;;;;;-0.96;69.68;98681.39;1659310;82;22216;-55
2021/01/13 11:03:03;;;;;;;17.10;11.22;;;;;;;-1.06;69.96;98676.33;1732124;80;21142;-58
2021/01/13 11:05:35;;;;;;;22.75;11.08;;;;;;;-1.06;69.86;98670.16;1725318;80;21150;-58
2021/01/13 11:08:05;;;;;;;19.37;12.40;;;;;;;-1.08;69.65;98670.17;1728897;80;21439;-60
2021/01/13 11:10:36;;;;;;;18.90;11.88;;;;;;;-1.12;69.63;98677.77;1729749;80;21507;-58
2021/01/13 11:13:08;;;;;;;20.90;13.13;;;;;;;-1.10;69.77;98668.48;1725771;80;22221;-55
2021/01/13 11:15:39;;;;;;;20.75;12.15;;;;;;;-1.07;69.74;98670.58;1724985;80;21664;-56
2021/01/13 11:18:09;;;;;;;21.87;12.70;;;;;;;-1.08;69.83;98659.59;1730869;80;21579;-53
2021/01/13 11:20:37;;;;;;;23.67;10.53;;;;;;;-1.09;69.89;98663.14;1705955;82;21204;-52
2021/01/13 11:23:06;;;;;;;19.00;11.38;;;;;;;-1.09;69.83;98664.47;1697201;82;21574;-53
2021/01/13 11:25:41;;;;;;;16.62;10.58;;;;;;;-1.12;69.88;98665.88;1727896;80;21212;-55
2021/01/13 11:28:13;;;;;;;22.70;10.93;;;;;;;-1.11;69.67;98653.06;1761390;79;21156;-53
2021/01/13 11:30:44;;;;;;;15.83;9.73;;;;;;;-1.07;69.65;98642.80;1761985;78;21156;-57
2021/01/13 11:33:14;;;;;;;17.85;11.63;;;;;;;-1.09;69.43;98647.27;1762278;78;21113;-51
2021/01/13 11:35:48;;;;;;;14.20;9.48;;;;;;;-1.12;69.51;98646.03;1761240;79;20962;-54
2021/01/13 11:38:58;;;;;;;16.27;10.23;;;;;;;-1.12;69.54;98631.48;1757740;79;21645;-54
2021/01/13 11:41:44;;;;;;;12.98;8.23;;;;;;;-1.11;69.54;98638.52;1758841;78;21666;-60
2021/01/13 11:44:36;;;;;;;14.10;8.50;;;;;;;-1.11;69.59;98635.86;1758607;79;21172;-59
2021/01/13 11:47:26;;;;;;;14.83;10.10;;;;;;;-1.17;69.48;98630.71;1760771;78;20994;-55
2021/01/13 11:49:55;;;;;;;13.83;9.00;;;;;;;-1.18;69.56;98635.55;1731777;80;21101;-60
2021/01/13 11:52:32;;;;;;;14.65;9.00;;;;;;;-1.16;69.51;98621.86;1765186;79;22262;-60
2021/01/13 11:55:00;;;;;;;13.00;9.48;;;;;;;-1.14;69.42;98627.98;1762500;78;21140;-61